Trout Lake, New York
Current Conditions -  °F | °C
As of 10:53 AM on Thursday 23 Oct 2014 (Local Time) from KGFL Reporting Station
Moderate Rain Moderate Rain  
Wind Chill: 43°   Ceiling: 2200
Heat Index: 47°   Visibility: 4mi
Dew Point: 43°   Wind: 9mph
Humidity: 86%   Direction: 360°N
Pressure: 29.87"   Gusts: NA
Location:  43.5383°N, 73.7083°W
Report Text: KGFL 231453Z AUTO 36008KT 4SM RA BR BKN022 OVC055 08/06 A2987 RMK AO2 RAB24 SLP118 P0006 60006 T00830061 57001
Loading
Personal Weather Stations






























Interactive Weather Map
Tropical Storm Tracking
New forecast layout! Learn more

10-Day Weather Forecast

Advertisements
Track Severe Weather on mobile